• Join FlightAware (Why Join?)
  • Login
  • US Flag 
06:40PM EDT


 

Airport Tracker/Info


-or-


 

Live Flight TrackerFlight Track Log ✈ DAL6057 ✈ 02-May-2013 ✈ KCMH - KDTW

Flight Track Log - Related Links

Times and Time Zones

All times are in EDT time to prevent confusion due to time zone crossing. See the DAL6057 flight status page for this flight to view local times or setup timezone preferences in your user account.

Time Position Orientation Groundspeed Altitude Reporting Facility
EDT Latitude Longitude Course Direction KTS MPH feet Rate Location/Type
06:27AM 40.0003 -82.8800 21° North 153 176 1,200  Level Indianapolis Center
06:27AM 39.9994 -82.8608 93° East 148 170 1,900 2,040 Climbing Indianapolis Center
06:28AM 40.0042 -82.7906 85° East 219 252 3,900 2,220 Climbing Indianapolis Center
06:29AM 40.0697 -82.7472 27° Northeast 250 288 6,500 2,400 Climbing Indianapolis Center
06:30AM 40.3210 -82.6422 29° Northeast  Level FlightAware Approximate
06:30AM 40.1408 -82.7153 19° North 266 306 8,800  Level Indianapolis Center
06:31AM 40.4098 -82.5875 25° Northeast  Level FlightAware Approximate
06:31AM 40.2158 -82.6822 19° North 279 321 11,000  Level Indianapolis Center
06:32AM 40.5013 -82.5410 21° North  Level FlightAware Approximate
06:32AM 40.2881 -82.6500 19° North 298 343 12,400  Level Indianapolis Center
06:33AM 40.3764 -82.6108 19° North 326 375 14,000 1,260 Climbing Indianapolis Center
06:34AM 40.4669 -82.5694 19° North 341 392 15,000 480 Climbing Indianapolis Center
06:35AM 40.5689 -82.5236 19° North 380 437 15,000  Level Indianapolis Center
06:36AM 40.6728 -82.5322 356° North 374 430 15,000  Level Indianapolis Center
06:37AM 40.7717 -82.5536 351° North 358 412 15,000  Level Indianapolis Center
06:38AM 40.8692 -82.5783 349° North 353 406 15,000  Level Indianapolis Center
06:39AM 40.9625 -82.6186 342° North 357 411 15,000  Level Indianapolis Center
06:40AM 41.0547 -82.6731 336° Northwest 359 413 15,000  Level Indianapolis Center
06:41AM 41.1472 -82.7267 336° Northwest 358 412 15,000  Level Indianapolis Center
06:42AM 41.2406 -82.7806 337° Northwest 360 414 15,000 -540 Level Indianapolis Center
06:43AM 41.3475 -82.8483 335° Northwest 360 414 13,900 -960 Descending Cleveland Center
06:44AM 41.4011 -82.8781 337° Northwest 366 421 13,500 -1,020 Descending Cleveland Center
06:44AM 41.4425 -82.9017 337° Northwest 360 414 12,900 -1,020 Descending Cleveland Center
06:45AM 41.4939 -82.9367 333° Northwest 366 421 12,500 -840 Descending Cleveland Center
06:45AM 41.5228 -82.9517 339° North 360 414 12,100 -660 Descending Cleveland Center
06:45AM 41.5661 -82.9756 338° Northwest 363 418 12,000 -240 Descending Cleveland Center
06:46AM 41.6133 -83.0050 335° Northwest 352 405 11,900  Descending Cleveland Center
06:47AM 41.6669 -83.0347 338° Northwest 345 397 12,000 60 Climbing Cleveland Center
06:47AM 41.7019 -83.0583 333° Northwest 352 405 12,000  Level Cleveland Center
06:48AM 41.7881 -83.1231 331° Northwest 352 405 12,000  Level Cleveland Center
06:49AM 41.8497 -83.1533 340° North 359 413 12,000 -300 Level Cleveland Center
06:49AM 41.8808 -83.1603 351° North 352 405 11,700 -1,020 Descending Cleveland Center
06:50AM 41.9536 -83.1769 350° North 343 395 11,000 -720 Descending Cleveland Center
06:50AM 41.9742 -83.1806 353° North 342 394 11,000 -480 Level Cleveland Center
06:51AM 42.0489 -83.2006 349° North 325 374 10,500 -720 Descending Cleveland Center
06:51AM 42.0614 -83.2011 358° North 330 380 10,300 -1,620 Descending Cleveland Center
06:52AM 42.1297 -83.2206 348° North 286 329 8,900 -1,800 Descending Cleveland Center
06:52AM 42.1506 -83.2242 353° North 306 352 8,500 -1,620 Descending Cleveland Center
06:53AM 42.2028 -83.2125 North 264 304 7,300 -1,500 Descending Cleveland Center
06:53AM 42.2114 -83.2044 35° Northeast 288 331 7,000 -1,740 Descending Cleveland Center
06:54AM 42.2689 -83.1533 33° Northeast 249 287 5,400 -1,320 Descending Cleveland Center
06:55AM 42.3150 -83.1386 13° North 265 305 5,000 -540 Descending Cleveland Center
06:56AM 42.3717 -83.2111 317° Northwest 257 296 4,500 -720 Descending Cleveland Center
06:57AM 42.3536 -83.2750 249° West 198 228 3,500 -1,020 Descending Cleveland Center
06:58AM 42.3050 -83.3094 208° Southwest 187 215 2,400 -1,140 Descending Cleveland Center